sensor_id;sensor_type;location;lat;lon;timestamp;temperature;humidity
30304;DHT22;17112;48.636;10.152;2024-03-29T00:02:03;5.40;63.50
30304;DHT22;17112;48.636;10.152;2024-03-29T00:04:29;5.40;63.70
30304;DHT22;17112;48.636;10.152;2024-03-29T00:06:55;5.40;63.80
30304;DHT22;17112;48.636;10.152;2024-03-29T00:09:21;5.40;63.80
30304;DHT22;17112;48.636;10.152;2024-03-29T00:11:47;5.30;63.60
30304;DHT22;17112;48.636;10.152;2024-03-29T00:14:13;5.40;64.40
30304;DHT22;17112;48.636;10.152;2024-03-29T00:16:38;5.30;63.70
30304;DHT22;17112;48.636;10.152;2024-03-29T00:19:04;5.30;63.70
30304;DHT22;17112;48.636;10.152;2024-03-29T00:21:30;5.30;63.80
30304;DHT22;17112;48.636;10.152;2024-03-29T00:23:56;5.30;63.90
30304;DHT22;17112;48.636;10.152;2024-03-29T00:26:22;5.30;64.70
30304;DHT22;17112;48.636;10.152;2024-03-29T00:28:47;5.30;63.90
30304;DHT22;17112;48.636;10.152;2024-03-29T00:31:13;5.30;63.80
30304;DHT22;17112;48.636;10.152;2024-03-29T00:33:39;5.30;63.90
30304;DHT22;17112;48.636;10.152;2024-03-29T00:36:04;5.30;63.90
30304;DHT22;17112;48.636;10.152;2024-03-29T00:38:30;5.30;64.00
30304;DHT22;17112;48.636;10.152;2024-03-29T00:40:56;5.30;64.00
30304;DHT22;17112;48.636;10.152;2024-03-29T00:43:22;5.30;64.00
30304;DHT22;17112;48.636;10.152;2024-03-29T00:45:47;5.30;64.10
30304;DHT22;17112;48.636;10.152;2024-03-29T00:48:15;5.30;64.30
30304;DHT22;17112;48.636;10.152;2024-03-29T00:50:43;5.30;64.40
30304;DHT22;17112;48.636;10.152;2024-03-29T00:53:08;5.30;64.40
30304;DHT22;17112;48.636;10.152;2024-03-29T00:55:34;5.30;64.50
30304;DHT22;17112;48.636;10.152;2024-03-29T00:58:00;5.30;64.60
30304;DHT22;17112;48.636;10.152;2024-03-29T01:00:26;5.30;64.70
30304;DHT22;17112;48.636;10.152;2024-03-29T01:02:51;5.30;64.70
30304;DHT22;17112;48.636;10.152;2024-03-29T01:05:17;5.30;64.80
30304;DHT22;17112;48.636;10.152;2024-03-29T01:07:42;5.30;64.80
30304;DHT22;17112;48.636;10.152;2024-03-29T01:10:09;5.30;64.80
30304;DHT22;17112;48.636;10.152;2024-03-29T01:12:35;5.30;64.90
30304;DHT22;17112;48.636;10.152;2024-03-29T01:15:01;5.30;64.90
30304;DHT22;17112;48.636;10.152;2024-03-29T01:17:28;5.30;65.10
30304;DHT22;17112;48.636;10.152;2024-03-29T01:19:54;5.40;65.20
30304;DHT22;17112;48.636;10.152;2024-03-29T01:22:19;5.40;65.30
30304;DHT22;17112;48.636;10.152;2024-03-29T01:24:45;5.40;65.30
30304;DHT22;17112;48.636;10.152;2024-03-29T01:27:10;5.40;65.30
30304;DHT22;17112;48.636;10.152;2024-03-29T01:29:36;5.40;65.70
30304;DHT22;17112;48.636;10.152;2024-03-29T01:32:03;5.40;65.30
30304;DHT22;17112;48.636;10.152;2024-03-29T01:34:29;5.50;65.20
30304;DHT22;17112;48.636;10.152;2024-03-29T01:36:54;5.50;65.00
30304;DHT22;17112;48.636;10.152;2024-03-29T01:39:20;5.50;65.00
30304;DHT22;17112;48.636;10.152;2024-03-29T01:41:52;5.40;64.90
30304;DHT22;17112;48.636;10.152;2024-03-29T01:44:18;5.40;64.80
30304;DHT22;17112;48.636;10.152;2024-03-29T01:46:45;5.40;64.80
30304;DHT22;17112;48.636;10.152;2024-03-29T01:49:12;5.40;64.90
30304;DHT22;17112;48.636;10.152;2024-03-29T01:51:39;5.40;64.90
30304;DHT22;17112;48.636;10.152;2024-03-29T01:54:06;5.40;65.10
30304;DHT22;17112;48.636;10.152;2024-03-29T01:56:35;5.40;65.10
30304;DHT22;17112;48.636;10.152;2024-03-29T01:59:03;5.40;65.10
30304;DHT22;17112;48.636;10.152;2024-03-29T02:01:30;5.30;65.10
30304;DHT22;17112;48.636;10.152;2024-03-29T02:03:56;5.30;65.20
30304;DHT22;17112;48.636;10.152;2024-03-29T02:06:23;5.30;65.10
30304;DHT22;17112;48.636;10.152;2024-03-29T02:08:57;5.30;65.20
30304;DHT22;17112;48.636;10.152;2024-03-29T02:11:23;5.30;65.50
30304;DHT22;17112;48.636;10.152;2024-03-29T02:13:49;5.40;65.30
30304;DHT22;17112;48.636;10.152;2024-03-29T02:16:16;5.30;65.30
30304;DHT22;17112;48.636;10.152;2024-03-29T02:18:41;5.30;65.30
30304;DHT22;17112;48.636;10.152;2024-03-29T02:21:07;5.30;65.20
30304;DHT22;17112;48.636;10.152;2024-03-29T02:23:36;5.30;65.20
30304;DHT22;17112;48.636;10.152;2024-03-29T02:26:02;5.40;65.30
30304;DHT22;17112;48.636;10.152;2024-03-29T02:28:30;5.30;65.40
30304;DHT22;17112;48.636;10.152;2024-03-29T02:30:55;5.30;65.50
30304;DHT22;17112;48.636;10.152;2024-03-29T02:33:21;5.30;66.30
30304;DHT22;17112;48.636;10.152;2024-03-29T02:35:48;5.30;65.60
30304;DHT22;17112;48.636;10.152;2024-03-29T02:38:13;5.30;65.60
30304;DHT22;17112;48.636;10.152;2024-03-29T02:40:39;5.30;65.70
30304;DHT22;17112;48.636;10.152;2024-03-29T02:43:05;5.30;65.70
30304;DHT22;17112;48.636;10.152;2024-03-29T02:45:34;5.30;65.80
30304;DHT22;17112;48.636;10.152;2024-03-29T02:48:01;5.30;66.00
30304;DHT22;17112;48.636;10.152;2024-03-29T02:50:27;5.30;66.10
30304;DHT22;17112;48.636;10.152;2024-03-29T02:52:53;5.30;66.10
30304;DHT22;17112;48.636;10.152;2024-03-29T02:55:18;5.30;66.10
30304;DHT22;17112;48.636;10.152;2024-03-29T02:57:44;5.30;66.20
30304;DHT22;17112;48.636;10.152;2024-03-29T03:00:10;5.40;66.30
30304;DHT22;17112;48.636;10.152;2024-03-29T03:02:39;5.30;66.20
30304;DHT22;17112;48.636;10.152;2024-03-29T03:05:06;5.30;66.20
30304;DHT22;17112;48.636;10.152;2024-03-29T03:07:32;5.30;66.10
30304;DHT22;17112;48.636;10.152;2024-03-29T03:10:16;5.60;66.30
30304;DHT22;17112;48.636;10.152;2024-03-29T03:13:00;5.40;66.30
30304;DHT22;17112;48.636;10.152;2024-03-29T03:15:26;5.40;65.70
30304;DHT22;17112;48.636;10.152;2024-03-29T03:17:52;5.40;65.90
30304;DHT22;17112;48.636;10.152;2024-03-29T03:20:17;5.40;66.30
30304;DHT22;17112;48.636;10.152;2024-03-29T03:22:44;5.40;66.50
30304;DHT22;17112;48.636;10.152;2024-03-29T03:25:10;5.40;66.60
30304;DHT22;17112;48.636;10.152;2024-03-29T03:27:36;5.40;66.60
30304;DHT22;17112;48.636;10.152;2024-03-29T03:30:02;5.30;66.50
30304;DHT22;17112;48.636;10.152;2024-03-29T03:32:28;5.30;66.40
30304;DHT22;17112;48.636;10.152;2024-03-29T03:34:53;5.40;66.60
30304;DHT22;17112;48.636;10.152;2024-03-29T03:37:19;5.40;66.70
30304;DHT22;17112;48.636;10.152;2024-03-29T03:39:45;5.40;66.70
30304;DHT22;17112;48.636;10.152;2024-03-29T03:42:10;5.40;66.90
30304;DHT22;17112;48.636;10.152;2024-03-29T03:44:36;5.40;66.50
30304;DHT22;17112;48.636;10.152;2024-03-29T03:47:02;5.30;66.70
30304;DHT22;17112;48.636;10.152;2024-03-29T03:49:27;5.30;66.40
30304;DHT22;17112;48.636;10.152;2024-03-29T03:51:53;5.30;66.20
30304;DHT22;17112;48.636;10.152;2024-03-29T03:54:19;5.30;66.70
30304;DHT22;17112;48.636;10.152;2024-03-29T03:56:45;5.30;67.10
30304;DHT22;17112;48.636;10.152;2024-03-29T03:59:10;5.30;67.20
30304;DHT22;17112;48.636;10.152;2024-03-29T04:01:36;5.30;67.30
30304;DHT22;17112;48.636;10.152;2024-03-29T04:04:02;5.30;67.20
30304;DHT22;17112;48.636;10.152;2024-03-29T04:06:27;5.30;66.60
30304;DHT22;17112;48.636;10.152;2024-03-29T04:08:53;5.30;67.10
30304;DHT22;17112;48.636;10.152;2024-03-29T04:11:19;5.30;67.40
30304;DHT22;17112;48.636;10.152;2024-03-29T04:13:45;5.30;67.50
30304;DHT22;17112;48.636;10.152;2024-03-29T04:16:11;5.30;66.90
30304;DHT22;17112;48.636;10.152;2024-03-29T04:18:37;5.30;67.30
30304;DHT22;17112;48.636;10.152;2024-03-29T04:21:03;5.30;67.60
30304;DHT22;17112;48.636;10.152;2024-03-29T04:23:29;5.40;68.00
30304;DHT22;17112;48.636;10.152;2024-03-29T04:25:56;5.40;67.90
30304;DHT22;17112;48.636;10.152;2024-03-29T04:28:22;5.50;67.80
30304;DHT22;17112;48.636;10.152;2024-03-29T04:30:55;5.50;68.10
30304;DHT22;17112;48.636;10.152;2024-03-29T04:33:21;5.60;68.50
30304;DHT22;17112;48.636;10.152;2024-03-29T04:35:54;5.60;68.10
30304;DHT22;17112;48.636;10.152;2024-03-29T04:38:20;5.70;68.40
30304;DHT22;17112;48.636;10.152;2024-03-29T04:40:47;5.70;68.00
30304;DHT22;17112;48.636;10.152;2024-03-29T04:43:13;5.80;68.00
30304;DHT22;17112;48.636;10.152;2024-03-29T04:45:43;5.80;67.80
30304;DHT22;17112;48.636;10.152;2024-03-29T04:48:09;5.90;67.80
30304;DHT22;17112;48.636;10.152;2024-03-29T04:50:35;5.90;67.80
30304;DHT22;17112;48.636;10.152;2024-03-29T04:53:01;5.90;67.70
30304;DHT22;17112;48.636;10.152;2024-03-29T04:55:26;5.90;67.70
30304;DHT22;17112;48.636;10.152;2024-03-29T04:57:52;5.90;67.70
30304;DHT22;17112;48.636;10.152;2024-03-29T05:00:18;6.00;67.80
30304;DHT22;17112;48.636;10.152;2024-03-29T05:02:44;6.00;67.80
30304;DHT22;17112;48.636;10.152;2024-03-29T05:05:09;6.00;67.90
30304;DHT22;17112;48.636;10.152;2024-03-29T05:07:35;6.00;67.90
30304;DHT22;17112;48.636;10.152;2024-03-29T05:10:01;6.10;67.90
30304;DHT22;17112;48.636;10.152;2024-03-29T05:12:29;6.10;67.70
30304;DHT22;17112;48.636;10.152;2024-03-29T05:14:54;6.10;67.40
30304;DHT22;17112;48.636;10.152;2024-03-29T05:17:20;6.10;67.60
30304;DHT22;17112;48.636;10.152;2024-03-29T05:19:50;6.10;67.50
30304;DHT22;17112;48.636;10.152;2024-03-29T05:22:16;6.10;67.70
30304;DHT22;17112;48.636;10.152;2024-03-29T05:24:42;6.10;67.90
30304;DHT22;17112;48.636;10.152;2024-03-29T05:27:07;6.20;68.00
30304;DHT22;17112;48.636;10.152;2024-03-29T05:29:33;6.20;67.90
30304;DHT22;17112;48.636;10.152;2024-03-29T05:31:59;6.20;68.00
30304;DHT22;17112;48.636;10.152;2024-03-29T05:34:24;6.20;68.10
30304;DHT22;17112;48.636;10.152;2024-03-29T05:36:50;6.30;68.20
30304;DHT22;17112;48.636;10.152;2024-03-29T05:39:16;6.30;68.00
30304;DHT22;17112;48.636;10.152;2024-03-29T05:41:44;6.30;67.90
30304;DHT22;17112;48.636;10.152;2024-03-29T05:44:09;6.30;67.90
30304;DHT22;17112;48.636;10.152;2024-03-29T05:46:35;6.30;67.80
30304;DHT22;17112;48.636;10.152;2024-03-29T05:49:01;6.40;68.00
30304;DHT22;17112;48.636;10.152;2024-03-29T05:51:27;6.40;68.10
30304;DHT22;17112;48.636;10.152;2024-03-29T05:53:52;6.40;68.10
30304;DHT22;17112;48.636;10.152;2024-03-29T05:56:18;6.40;68.00
30304;DHT22;17112;48.636;10.152;2024-03-29T05:58:44;6.50;68.00
30304;DHT22;17112;48.636;10.152;2024-03-29T06:01:10;6.50;68.00
30304;DHT22;17112;48.636;10.152;2024-03-29T06:03:36;6.60;67.60
30304;DHT22;17112;48.636;10.152;2024-03-29T06:06:02;6.60;67.70
30304;DHT22;17112;48.636;10.152;2024-03-29T06:08:27;6.60;67.80
30304;DHT22;17112;48.636;10.152;2024-03-29T06:10:54;6.60;67.90
30304;DHT22;17112;48.636;10.152;2024-03-29T06:13:20;6.70;68.10
30304;DHT22;17112;48.636;10.152;2024-03-29T06:16:14;6.70;68.00
30304;DHT22;17112;48.636;10.152;2024-03-29T06:18:59;6.70;67.30
30304;DHT22;17112;48.636;10.152;2024-03-29T06:21:24;6.70;67.50
30304;DHT22;17112;48.636;10.152;2024-03-29T06:23:50;6.70;67.90
30304;DHT22;17112;48.636;10.152;2024-03-29T06:26:16;6.80;68.00
30304;DHT22;17112;48.636;10.152;2024-03-29T06:28:41;6.80;68.90
30304;DHT22;17112;48.636;10.152;2024-03-29T06:31:07;6.80;68.00
30304;DHT22;17112;48.636;10.152;2024-03-29T06:33:33;6.90;68.20
30304;DHT22;17112;48.636;10.152;2024-03-29T06:35:58;6.90;67.70
30304;DHT22;17112;48.636;10.152;2024-03-29T06:38:24;6.90;67.80
30304;DHT22;17112;48.636;10.152;2024-03-29T06:40:49;7.00;67.80
30304;DHT22;17112;48.636;10.152;2024-03-29T06:43:15;7.00;67.70
30304;DHT22;17112;48.636;10.152;2024-03-29T06:45:41;7.00;67.80
30304;DHT22;17112;48.636;10.152;2024-03-29T06:48:10;7.10;67.80
30304;DHT22;17112;48.636;10.152;2024-03-29T06:50:37;7.20;67.80
30304;DHT22;17112;48.636;10.152;2024-03-29T06:53:03;7.20;67.90
30304;DHT22;17112;48.636;10.152;2024-03-29T06:55:30;7.30;67.90
30304;DHT22;17112;48.636;10.152;2024-03-29T06:57:56;7.30;67.60
30304;DHT22;17112;48.636;10.152;2024-03-29T07:00:22;7.40;67.20
30304;DHT22;17112;48.636;10.152;2024-03-29T07:02:47;7.40;67.20
30304;DHT22;17112;48.636;10.152;2024-03-29T07:05:13;7.50;66.90
30304;DHT22;17112;48.636;10.152;2024-03-29T07:07:39;7.50;66.90
30304;DHT22;17112;48.636;10.152;2024-03-29T07:10:06;7.60;67.00
30304;DHT22;17112;48.636;10.152;2024-03-29T07:12:32;7.60;66.80
30304;DHT22;17112;48.636;10.152;2024-03-29T07:14:58;7.60;66.80
30304;DHT22;17112;48.636;10.152;2024-03-29T07:17:24;7.70;66.80
30304;DHT22;17112;48.636;10.152;2024-03-29T07:19:49;7.80;66.90
30304;DHT22;17112;48.636;10.152;2024-03-29T07:22:15;7.80;66.60
30304;DHT22;17112;48.636;10.152;2024-03-29T07:24:41;7.90;66.70
30304;DHT22;17112;48.636;10.152;2024-03-29T07:27:06;8.00;66.80
30304;DHT22;17112;48.636;10.152;2024-03-29T07:29:32;8.10;66.70
30304;DHT22;17112;48.636;10.152;2024-03-29T07:32:00;8.10;66.40
30304;DHT22;17112;48.636;10.152;2024-03-29T07:34:26;8.20;66.20
30304;DHT22;17112;48.636;10.152;2024-03-29T07:36:52;8.30;66.20
30304;DHT22;17112;48.636;10.152;2024-03-29T07:39:17;8.30;65.90
30304;DHT22;17112;48.636;10.152;2024-03-29T07:41:43;8.40;65.90
30304;DHT22;17112;48.636;10.152;2024-03-29T07:44:09;8.40;65.70
30304;DHT22;17112;48.636;10.152;2024-03-29T07:46:36;8.40;65.70
30304;DHT22;17112;48.636;10.152;2024-03-29T07:49:05;8.50;65.80
30304;DHT22;17112;48.636;10.152;2024-03-29T07:51:31;8.50;65.70
30304;DHT22;17112;48.636;10.152;2024-03-29T07:53:56;8.60;65.70
30304;DHT22;17112;48.636;10.152;2024-03-29T07:56:22;8.60;65.60
30304;DHT22;17112;48.636;10.152;2024-03-29T07:58:51;8.60;65.70
30304;DHT22;17112;48.636;10.152;2024-03-29T08:01:19;8.70;65.50
30304;DHT22;17112;48.636;10.152;2024-03-29T08:03:44;8.70;65.40
30304;DHT22;17112;48.636;10.152;2024-03-29T08:06:10;8.80;65.70
30304;DHT22;17112;48.636;10.152;2024-03-29T08:08:36;8.80;65.70
30304;DHT22;17112;48.636;10.152;2024-03-29T08:11:01;8.90;65.60
30304;DHT22;17112;48.636;10.152;2024-03-29T08:13:27;8.90;65.50
30304;DHT22;17112;48.636;10.152;2024-03-29T08:15:59;9.00;65.50
30304;DHT22;17112;48.636;10.152;2024-03-29T08:18:26;9.10;65.70
30304;DHT22;17112;48.636;10.152;2024-03-29T08:20:52;9.20;65.40
30304;DHT22;17112;48.636;10.152;2024-03-29T08:23:19;9.20;65.10
30304;DHT22;17112;48.636;10.152;2024-03-29T08:25:45;9.30;65.00
30304;DHT22;17112;48.636;10.152;2024-03-29T08:28:10;9.30;65.00
30304;DHT22;17112;48.636;10.152;2024-03-29T08:30:36;9.40;65.20
30304;DHT22;17112;48.636;10.152;2024-03-29T08:33:03;9.50;65.10
30304;DHT22;17112;48.636;10.152;2024-03-29T08:35:34;9.50;65.00
30304;DHT22;17112;48.636;10.152;2024-03-29T08:38:02;9.70;65.00
30304;DHT22;17112;48.636;10.152;2024-03-29T08:40:29;9.80;64.70
30304;DHT22;17112;48.636;10.152;2024-03-29T08:42:56;9.90;64.70
30304;DHT22;17112;48.636;10.152;2024-03-29T08:45:22;10.00;65.80
30304;DHT22;17112;48.636;10.152;2024-03-29T08:47:48;10.20;65.10
30304;DHT22;17112;48.636;10.152;2024-03-29T08:50:15;10.40;64.60
30304;DHT22;17112;48.636;10.152;2024-03-29T08:52:41;10.60;64.30
30304;DHT22;17112;48.636;10.152;2024-03-29T08:55:07;10.80;63.70
30304;DHT22;17112;48.636;10.152;2024-03-29T08:57:33;11.00;63.30
30304;DHT22;17112;48.636;10.152;2024-03-29T08:59:59;11.20;62.90
30304;DHT22;17112;48.636;10.152;2024-03-29T09:02:25;11.30;62.40
30304;DHT22;17112;48.636;10.152;2024-03-29T09:04:51;11.50;62.40
30304;DHT22;17112;48.636;10.152;2024-03-29T09:07:17;11.60;62.10
30304;DHT22;17112;48.636;10.152;2024-03-29T09:09:43;11.70;62.70
30304;DHT22;17112;48.636;10.152;2024-03-29T09:12:09;11.80;61.90
30304;DHT22;17112;48.636;10.152;2024-03-29T09:14:35;12.00;61.60
30304;DHT22;17112;48.636;10.152;2024-03-29T09:17:01;12.00;61.20
30304;DHT22;17112;48.636;10.152;2024-03-29T09:19:28;12.00;61.00
30304;DHT22;17112;48.636;10.152;2024-03-29T09:21:55;12.10;60.90
30304;DHT22;17112;48.636;10.152;2024-03-29T09:24:21;12.20;60.70
30304;DHT22;17112;48.636;10.152;2024-03-29T09:26:51;12.20;60.70
30304;DHT22;17112;48.636;10.152;2024-03-29T09:29:16;12.30;60.60
30304;DHT22;17112;48.636;10.152;2024-03-29T09:31:43;12.40;60.60
30304;DHT22;17112;48.636;10.152;2024-03-29T09:34:09;12.60;60.40
30304;DHT22;17112;48.636;10.152;2024-03-29T09:36:34;12.60;60.10
30304;DHT22;17112;48.636;10.152;2024-03-29T09:39:00;12.70;59.60
30304;DHT22;17112;48.636;10.152;2024-03-29T09:41:26;12.80;59.60
30304;DHT22;17112;48.636;10.152;2024-03-29T09:43:54;12.80;59.40
30304;DHT22;17112;48.636;10.152;2024-03-29T09:46:24;12.80;59.40
30304;DHT22;17112;48.636;10.152;2024-03-29T09:48:51;12.90;59.50
30304;DHT22;17112;48.636;10.152;2024-03-29T09:51:19;12.90;59.50
30304;DHT22;17112;48.636;10.152;2024-03-29T09:53:46;13.00;59.60
30304;DHT22;17112;48.636;10.152;2024-03-29T09:56:12;13.00;59.60
30304;DHT22;17112;48.636;10.152;2024-03-29T09:58:39;13.10;59.80
30304;DHT22;17112;48.636;10.152;2024-03-29T10:01:07;13.20;59.70
30304;DHT22;17112;48.636;10.152;2024-03-29T10:03:40;13.30;59.40
30304;DHT22;17112;48.636;10.152;2024-03-29T10:06:06;13.30;59.10
30304;DHT22;17112;48.636;10.152;2024-03-29T10:08:34;13.40;59.20
30304;DHT22;17112;48.636;10.152;2024-03-29T10:11:01;13.40;59.10
30304;DHT22;17112;48.636;10.152;2024-03-29T10:13:26;13.40;58.60
30304;DHT22;17112;48.636;10.152;2024-03-29T10:15:53;13.40;58.40
30304;DHT22;17112;48.636;10.152;2024-03-29T10:18:26;13.40;58.30
30304;DHT22;17112;48.636;10.152;2024-03-29T10:21:06;13.40;57.80
30304;DHT22;17112;48.636;10.152;2024-03-29T10:23:33;13.40;57.70
30304;DHT22;17112;48.636;10.152;2024-03-29T10:26:00;13.40;58.00
30304;DHT22;17112;48.636;10.152;2024-03-29T10:28:31;13.30;57.80
30304;DHT22;17112;48.636;10.152;2024-03-29T10:31:04;13.30;57.80
30304;DHT22;17112;48.636;10.152;2024-03-29T10:33:31;13.30;57.80
30304;DHT22;17112;48.636;10.152;2024-03-29T10:35:59;13.20;58.10
30304;DHT22;17112;48.636;10.152;2024-03-29T10:38:26;13.20;58.30
30304;DHT22;17112;48.636;10.152;2024-03-29T10:40:52;13.20;58.10
30304;DHT22;17112;48.636;10.152;2024-03-29T10:43:19;13.20;58.10
30304;DHT22;17112;48.636;10.152;2024-03-29T10:45:47;13.20;58.20
30304;DHT22;17112;48.636;10.152;2024-03-29T10:48:15;13.20;58.30
30304;DHT22;17112;48.636;10.152;2024-03-29T10:50:41;13.20;58.10
30304;DHT22;17112;48.636;10.152;2024-03-29T10:53:09;13.20;58.20
30304;DHT22;17112;48.636;10.152;2024-03-29T10:55:36;13.20;58.20
30304;DHT22;17112;48.636;10.152;2024-03-29T10:58:03;13.20;58.20
30304;DHT22;17112;48.636;10.152;2024-03-29T11:00:33;13.20;58.40
30304;DHT22;17112;48.636;10.152;2024-03-29T11:03:20;13.00;58.30
30304;DHT22;17112;48.636;10.152;2024-03-29T11:05:50;13.10;58.30
30304;DHT22;17112;48.636;10.152;2024-03-29T11:08:27;13.10;58.40
30304;DHT22;17112;48.636;10.152;2024-03-29T11:10:58;13.10;58.50
30304;DHT22;17112;48.636;10.152;2024-03-29T11:15:59;13.10;58.70
30304;DHT22;17112;48.636;10.152;2024-03-29T11:18:27;13.10;58.80
30304;DHT22;17112;48.636;10.152;2024-03-29T11:20:53;13.20;58.80
30304;DHT22;17112;48.636;10.152;2024-03-29T11:23:20;13.20;58.80
30304;DHT22;17112;48.636;10.152;2024-03-29T11:25:54;13.30;58.90
30304;DHT22;17112;48.636;10.152;2024-03-29T11:28:25;13.30;58.90
30304;DHT22;17112;48.636;10.152;2024-03-29T11:30:52;13.40;59.00
30304;DHT22;17112;48.636;10.152;2024-03-29T11:33:35;13.50;59.00
30304;DHT22;17112;48.636;10.152;2024-03-29T11:36:18;13.60;58.80
30304;DHT22;17112;48.636;10.152;2024-03-29T11:38:48;13.70;59.00
30304;DHT22;17112;48.636;10.152;2024-03-29T11:41:16;13.80;59.10
30304;DHT22;17112;48.636;10.152;2024-03-29T11:43:43;13.90;59.00
30304;DHT22;17112;48.636;10.152;2024-03-29T11:46:13;14.00;58.70
30304;DHT22;17112;48.636;10.152;2024-03-29T11:48:40;14.10;59.00
30304;DHT22;17112;48.636;10.152;2024-03-29T11:51:11;14.20;59.00
30304;DHT22;17112;48.636;10.152;2024-03-29T11:53:38;14.30;58.70
30304;DHT22;17112;48.636;10.152;2024-03-29T11:56:04;14.40;58.70
30304;DHT22;17112;48.636;10.152;2024-03-29T11:58:32;14.50;58.70
30304;DHT22;17112;48.636;10.152;2024-03-29T12:00:59;14.60;58.50
30304;DHT22;17112;48.636;10.152;2024-03-29T12:03:27;14.60;58.40
30304;DHT22;17112;48.636;10.152;2024-03-29T12:05:54;14.70;58.30
30304;DHT22;17112;48.636;10.152;2024-03-29T12:08:30;14.80;58.20
30304;DHT22;17112;48.636;10.152;2024-03-29T12:11:00;14.80;58.10
30304;DHT22;17112;48.636;10.152;2024-03-29T12:13:26;14.90;57.90
30304;DHT22;17112;48.636;10.152;2024-03-29T12:15:53;15.00;58.00
30304;DHT22;17112;48.636;10.152;2024-03-29T12:18:23;15.10;58.10
30304;DHT22;17112;48.636;10.152;2024-03-29T12:20:51;15.20;57.80
30304;DHT22;17112;48.636;10.152;2024-03-29T12:23:18;15.30;57.80
30304;DHT22;17112;48.636;10.152;2024-03-29T12:25:45;15.40;57.70
30304;DHT22;17112;48.636;10.152;2024-03-29T12:28:13;15.60;57.60
30304;DHT22;17112;48.636;10.152;2024-03-29T12:30:41;15.70;57.40
30304;DHT22;17112;48.636;10.152;2024-03-29T12:33:08;15.80;57.20
30304;DHT22;17112;48.636;10.152;2024-03-29T12:35:35;15.80;57.40
30304;DHT22;17112;48.636;10.152;2024-03-29T12:38:03;15.90;57.20
30304;DHT22;17112;48.636;10.152;2024-03-29T12:40:31;16.00;57.30
30304;DHT22;17112;48.636;10.152;2024-03-29T12:43:04;16.10;57.20
30304;DHT22;17112;48.636;10.152;2024-03-29T12:45:38;16.30;56.80
30304;DHT22;17112;48.636;10.152;2024-03-29T12:48:15;16.40;56.50
30304;DHT22;17112;48.636;10.152;2024-03-29T12:50:43;16.50;56.00
30304;DHT22;17112;48.636;10.152;2024-03-29T12:53:11;16.60;56.30
30304;DHT22;17112;48.636;10.152;2024-03-29T12:55:44;16.80;56.10
30304;DHT22;17112;48.636;10.152;2024-03-29T12:58:14;17.00;56.20
30304;DHT22;17112;48.636;10.152;2024-03-29T13:00:41;17.20;56.10
30304;DHT22;17112;48.636;10.152;2024-03-29T13:03:08;17.40;55.50
30304;DHT22;17112;48.636;10.152;2024-03-29T13:05:38;17.60;55.20
30304;DHT22;17112;48.636;10.152;2024-03-29T13:08:13;17.80;54.30
30304;DHT22;17112;48.636;10.152;2024-03-29T13:10:41;18.00;53.80
30304;DHT22;17112;48.636;10.152;2024-03-29T13:13:07;18.20;54.10
30304;DHT22;17112;48.636;10.152;2024-03-29T13:15:35;18.30;54.10
30304;DHT22;17112;48.636;10.152;2024-03-29T13:18:01;18.40;53.10
30304;DHT22;17112;48.636;10.152;2024-03-29T13:20:27;18.50;53.00
30304;DHT22;17112;48.636;10.152;2024-03-29T13:22:53;18.50;52.70
30304;DHT22;17112;48.636;10.152;2024-03-29T13:25:21;18.50;52.40
30304;DHT22;17112;48.636;10.152;2024-03-29T13:27:51;18.50;51.90
30304;DHT22;17112;48.636;10.152;2024-03-29T13:30:22;18.50;51.60
30304;DHT22;17112;48.636;10.152;2024-03-29T13:32:48;18.50;51.80
30304;DHT22;17112;48.636;10.152;2024-03-29T13:35:14;18.50;51.70
30304;DHT22;17112;48.636;10.152;2024-03-29T13:37:43;18.60;51.20
30304;DHT22;17112;48.636;10.152;2024-03-29T13:40:12;18.70;50.80
30304;DHT22;17112;48.636;10.152;2024-03-29T13:42:39;18.70;51.30
30304;DHT22;17112;48.636;10.152;2024-03-29T13:45:05;18.80;51.20
30304;DHT22;17112;48.636;10.152;2024-03-29T13:47:40;19.00;51.20
30304;DHT22;17112;48.636;10.152;2024-03-29T13:50:07;19.10;50.60
30304;DHT22;17112;48.636;10.152;2024-03-29T13:52:33;19.30;50.90
30304;DHT22;17112;48.636;10.152;2024-03-29T13:54:59;19.50;50.70
30304;DHT22;17112;48.636;10.152;2024-03-29T13:57:25;19.70;50.70
30304;DHT22;17112;48.636;10.152;2024-03-29T13:59:51;19.90;50.50
30304;DHT22;17112;48.636;10.152;2024-03-29T14:02:18;20.20;50.50
30304;DHT22;17112;48.636;10.152;2024-03-29T14:04:44;20.30;50.00
30304;DHT22;17112;48.636;10.152;2024-03-29T14:07:11;20.70;50.20
30304;DHT22;17112;48.636;10.152;2024-03-29T14:09:39;21.00;49.60
30304;DHT22;17112;48.636;10.152;2024-03-29T14:12:05;21.20;49.00
30304;DHT22;17112;48.636;10.152;2024-03-29T14:14:31;21.40;48.50
30304;DHT22;17112;48.636;10.152;2024-03-29T14:16:57;21.70;48.40
30304;DHT22;17112;48.636;10.152;2024-03-29T14:19:23;21.90;48.10
30304;DHT22;17112;48.636;10.152;2024-03-29T14:21:49;22.10;47.60
30304;DHT22;17112;48.636;10.152;2024-03-29T14:24:15;22.20;47.70
30304;DHT22;17112;48.636;10.152;2024-03-29T14:26:42;22.40;46.50
30304;DHT22;17112;48.636;10.152;2024-03-29T14:29:08;22.60;46.10
30304;DHT22;17112;48.636;10.152;2024-03-29T14:31:34;22.70;46.30
30304;DHT22;17112;48.636;10.152;2024-03-29T14:33:59;23.00;45.90
30304;DHT22;17112;48.636;10.152;2024-03-29T14:36:25;23.10;45.50
30304;DHT22;17112;48.636;10.152;2024-03-29T14:38:51;23.30;45.00
30304;DHT22;17112;48.636;10.152;2024-03-29T14:41:18;23.40;44.80
30304;DHT22;17112;48.636;10.152;2024-03-29T14:43:43;23.50;44.30
30304;DHT22;17112;48.636;10.152;2024-03-29T14:46:12;23.50;44.30
30304;DHT22;17112;48.636;10.152;2024-03-29T14:48:37;23.60;44.30
30304;DHT22;17112;48.636;10.152;2024-03-29T14:51:03;23.60;44.10
30304;DHT22;17112;48.636;10.152;2024-03-29T14:53:29;23.70;43.90
30304;DHT22;17112;48.636;10.152;2024-03-29T14:55:55;23.60;43.90
30304;DHT22;17112;48.636;10.152;2024-03-29T14:58:20;23.70;44.20
30304;DHT22;17112;48.636;10.152;2024-03-29T15:00:46;23.70;44.30
30304;DHT22;17112;48.636;10.152;2024-03-29T15:03:13;23.70;44.10
30304;DHT22;17112;48.636;10.152;2024-03-29T15:05:39;23.70;44.00
30304;DHT22;17112;48.636;10.152;2024-03-29T15:08:05;23.80;44.00
30304;DHT22;17112;48.636;10.152;2024-03-29T15:10:31;23.80;43.50
30304;DHT22;17112;48.636;10.152;2024-03-29T15:12:57;23.80;42.80
30304;DHT22;17112;48.636;10.152;2024-03-29T15:15:23;23.70;42.80
30304;DHT22;17112;48.636;10.152;2024-03-29T15:17:49;23.60;42.90
30304;DHT22;17112;48.636;10.152;2024-03-29T15:20:15;23.50;42.70
30304;DHT22;17112;48.636;10.152;2024-03-29T15:22:41;23.30;42.80
30304;DHT22;17112;48.636;10.152;2024-03-29T15:25:10;23.20;42.90
30304;DHT22;17112;48.636;10.152;2024-03-29T15:27:36;23.10;43.30